createdAt,value
2022-10-17T00:01:17.084Z,4.13
2022-10-17T00:03:45.528Z,4.38
2022-10-17T00:06:15.476Z,3.92
2022-10-17T00:08:45.127Z,4.18
2022-10-17T00:11:18.100Z,4.10
2022-10-17T00:13:46.871Z,3.80
2022-10-17T00:16:15.708Z,4.30
2022-10-17T00:18:44.009Z,4.05
2022-10-17T00:21:17.627Z,4.22
2022-10-17T00:23:45.879Z,3.80
2022-10-17T00:26:15.371Z,3.72
2022-10-17T00:28:43.599Z,4.18
2022-10-17T00:31:12.090Z,4.07
2022-10-17T00:33:40.472Z,4.18
2022-10-17T00:36:12.645Z,3.70
2022-10-17T00:41:11.145Z,4.13
2022-10-17T00:43:56.908Z,4.75
2022-10-17T00:46:26.793Z,4.72
2022-10-17T00:48:56.641Z,4.60
2022-10-17T00:51:30.049Z,4.93
2022-10-17T00:53:58.338Z,5.57
2022-10-17T00:56:26.483Z,5.65
2022-10-17T00:58:56.436Z,5.85
2022-10-17T01:01:24.760Z,5.93
2022-10-17T01:03:52.816Z,6.75
2022-10-17T01:06:21.352Z,5.75
2022-10-17T01:08:49.547Z,6.15
2022-10-17T01:11:32.377Z,6.72
2022-10-17T01:14:06.411Z,6.40
2022-10-17T01:16:41.720Z,6.80
2022-10-17T01:19:34.258Z,6.75
2022-10-17T01:22:04.560Z,6.10
2022-10-17T01:24:49.260Z,5.90
2022-10-17T01:27:30.963Z,6.43
2022-10-17T01:30:24.143Z,6.50
2022-10-17T01:32:56.320Z,6.32
2022-10-17T01:35:27.690Z,6.13
2022-10-17T01:38:00.804Z,6.68
2022-10-17T01:40:32.629Z,6.43
2022-10-17T01:46:00.758Z,6.43
2022-10-17T01:48:34.568Z,6.63
2022-10-17T01:51:07.747Z,6.07
2022-10-17T01:53:40.904Z,6.72
2022-10-17T01:56:12.867Z,6.22
2022-10-17T01:58:45.164Z,7.00
2022-10-17T02:03:45.199Z,6.35
2022-10-17T02:06:13.274Z,6.80
2022-10-17T02:08:44.052Z,7.75
2022-10-17T02:11:15.579Z,6.47
2022-10-17T02:13:55.806Z,6.57
2022-10-17T02:16:31.247Z,6.18
2022-10-17T02:19:09.533Z,6.63
2022-10-17T02:21:45.482Z,6.78
2022-10-17T02:24:20.001Z,6.63
2022-10-17T02:26:52.933Z,6.68
2022-10-17T02:29:23.386Z,6.60
2022-10-17T02:31:56.122Z,7.25
2022-10-17T02:34:28.658Z,7.38
2022-10-17T02:36:59.642Z,6.40
2022-10-17T02:39:29.612Z,6.43
2022-10-17T02:42:00.343Z,8.10
2022-10-17T02:44:29.971Z,6.63
2022-10-17T02:47:05.503Z,7.45
2022-10-17T02:49:37.617Z,7.38
2022-10-17T02:52:11.847Z,7.30
2022-10-17T02:54:43.219Z,7.28
2022-10-17T02:57:14.925Z,7.32
2022-10-17T02:59:45.105Z,7.53
2022-10-17T03:02:13.513Z,7.53
2022-10-17T03:04:47.812Z,8.27
2022-10-17T03:07:16.213Z,7.15
2022-10-17T03:09:44.406Z,7.32
2022-10-17T03:12:12.480Z,8.05
2022-10-17T03:14:40.774Z,8.13
2022-10-17T03:17:09.072Z,8.18
2022-10-17T03:19:38.255Z,7.95
2022-10-17T03:22:07.933Z,9.38
2022-10-17T03:24:36.041Z,8.93
2022-10-17T03:27:04.126Z,9.13
2022-10-17T03:29:32.148Z,9.25
2022-10-17T03:32:00.273Z,10.20
2022-10-17T03:34:28.533Z,9.43
2022-10-17T03:36:56.962Z,9.35
2022-10-17T03:39:26.774Z,9.82
2022-10-17T03:41:55.077Z,9.93
2022-10-17T03:44:23.468Z,10.02
2022-10-17T03:46:51.720Z,11.00
2022-10-17T03:49:19.884Z,10.10
2022-10-17T03:51:48.218Z,9.52
2022-10-17T03:54:16.384Z,10.40
2022-10-17T03:56:45.963Z,9.95
2022-10-17T03:59:15.218Z,10.35
2022-10-17T04:01:44.122Z,10.80
2022-10-17T04:04:12.605Z,10.75
2022-10-17T04:06:40.854Z,10.52
2022-10-17T04:09:09.285Z,10.68
2022-10-17T04:11:37.404Z,11.10
2022-10-17T04:14:07.091Z,10.77
2022-10-17T04:16:37.636Z,11.10
2022-10-17T04:19:05.986Z,11.70
2022-10-17T04:21:35.290Z,12.02
2022-10-17T04:24:03.462Z,11.77
2022-10-17T04:26:31.718Z,12.10
2022-10-17T04:29:01.586Z,12.15
2022-10-17T04:34:24.538Z,12.05
2022-10-17T04:36:52.975Z,12.35
2022-10-17T04:39:21.074Z,12.70
2022-10-17T04:41:49.496Z,12.75
2022-10-17T04:44:17.504Z,12.98
2022-10-17T04:46:47.214Z,13.18
2022-10-17T04:49:15.387Z,13.93
2022-10-17T04:51:43.439Z,12.55
2022-10-17T04:54:12.953Z,12.80
2022-10-17T04:56:41.884Z,13.95
2022-10-17T04:59:09.936Z,12.77
2022-10-17T05:01:38.237Z,13.82
2022-10-17T05:04:07.724Z,13.93
2022-10-17T05:06:37.776Z,14.95
2022-10-17T05:09:06.372Z,14.27
2022-10-17T05:11:34.442Z,14.57
2022-10-17T05:14:03.436Z,13.88
2022-10-17T05:16:31.850Z,13.85
2022-10-17T05:19:00.484Z,14.55
2022-10-17T05:24:06.881Z,13.73
2022-10-17T05:26:35.276Z,13.02
2022-10-17T05:29:04.451Z,12.95
2022-10-17T05:31:33.027Z,11.65
2022-10-17T05:34:02.690Z,10.57
2022-10-17T05:36:32.343Z,11.25
2022-10-17T05:39:00.674Z,10.02
2022-10-17T05:41:28.905Z,10.10
2022-10-17T05:43:58.527Z,9.88
2022-10-17T05:46:28.727Z,9.13
2022-10-17T05:48:56.765Z,9.05
2022-10-17T05:51:25.467Z,9.35
2022-10-17T05:53:55.085Z,8.73
2022-10-17T05:56:23.362Z,7.78
2022-10-17T05:58:57.383Z,8.57
2022-10-17T06:01:28.532Z,7.57
2022-10-17T06:03:58.199Z,8.05
2022-10-17T06:06:28.880Z,7.85
2022-10-17T06:08:58.416Z,7.63
2022-10-17T06:11:27.651Z,7.82
2022-10-17T06:13:56.107Z,8.43
2022-10-17T06:16:26.762Z,7.50
2022-10-17T06:18:55.018Z,8.00
2022-10-17T06:21:27.196Z,7.30
2022-10-17T06:23:55.814Z,6.32
2022-10-17T06:26:26.513Z,7.25
2022-10-17T06:28:55.699Z,6.40
2022-10-17T06:31:23.706Z,6.30
2022-10-17T06:33:52.460Z,5.75
2022-10-17T06:36:20.657Z,6.30
2022-10-17T06:38:48.844Z,5.70
2022-10-17T06:41:19.336Z,5.03
2022-10-17T06:43:49.560Z,4.85
2022-10-17T06:46:19.304Z,4.80
2022-10-17T06:48:48.050Z,4.75
2022-10-17T06:51:16.198Z,4.70
2022-10-17T06:53:44.501Z,4.78
2022-10-17T06:56:12.783Z,4.35
2022-10-17T06:58:41.919Z,4.68
2022-10-17T07:01:14.968Z,4.40
2022-10-17T07:03:43.687Z,3.88
2022-10-17T07:06:11.876Z,4.20
2022-10-17T07:08:43.600Z,4.53
2022-10-17T07:11:12.100Z,4.15
2022-10-17T07:13:40.734Z,4.10
2022-10-17T07:16:11.021Z,3.70
2022-10-17T07:18:39.091Z,3.90
2022-10-17T07:21:08.859Z,3.40
2022-10-17T07:23:37.141Z,4.28
2022-10-17T07:26:08.356Z,3.75
2022-10-17T07:28:36.827Z,3.60
2022-10-17T07:31:06.229Z,3.83
2022-10-17T07:33:37.278Z,3.20
2022-10-17T07:36:07.187Z,3.67
2022-10-17T07:38:37.729Z,3.58
2022-10-17T07:41:08.942Z,3.20
2022-10-17T07:43:37.451Z,4.00
2022-10-17T07:46:08.932Z,2.85
2022-10-17T07:48:38.894Z,3.20
2022-10-17T07:51:08.598Z,3.15
2022-10-17T07:53:37.199Z,2.95
2022-10-17T07:56:08.242Z,3.47
2022-10-17T07:58:41.168Z,3.33
2022-10-17T08:01:16.242Z,3.08
2022-10-17T08:03:46.802Z,3.38
2022-10-17T08:06:15.418Z,3.40
2022-10-17T08:08:43.667Z,3.50
2022-10-17T08:11:18.321Z,2.78
2022-10-17T08:13:49.622Z,2.83
2022-10-17T08:16:17.811Z,2.97
2022-10-17T08:18:47.196Z,2.95
2022-10-17T08:21:16.084Z,2.90
2022-10-17T08:23:44.665Z,3.22
2022-10-17T08:26:16.897Z,3.15
2022-10-17T08:31:14.983Z,3.05
2022-10-17T08:33:43.838Z,2.65
2022-10-17T08:36:14.742Z,3.42
2022-10-17T08:38:43.843Z,2.53
2022-10-17T08:41:29.591Z,3.00
2022-10-17T08:44:06.798Z,2.88
2022-10-17T08:46:46.834Z,3.00
2022-10-17T08:49:17.911Z,2.60
2022-10-17T08:51:52.810Z,2.95
2022-10-17T08:54:24.704Z,3.17
2022-10-17T08:56:55.407Z,2.80
2022-10-17T08:59:27.258Z,2.50
2022-10-17T09:02:02.735Z,3.20
2022-10-17T09:04:49.550Z,2.50
2022-10-17T09:07:23.798Z,2.80
2022-10-17T09:09:58.930Z,2.80
2022-10-17T09:12:33.925Z,2.92
2022-10-17T09:15:14.179Z,2.70
2022-10-17T09:17:53.152Z,2.60
2022-10-17T09:20:27.355Z,2.58
2022-10-17T09:22:59.964Z,3.15
2022-10-17T09:25:29.071Z,2.58
2022-10-17T09:28:04.704Z,2.60
2022-10-17T09:30:45.119Z,2.42
2022-10-17T09:33:34.855Z,2.30
2022-10-17T09:36:07.870Z,2.38
2022-10-17T09:38:43.885Z,2.85
2022-10-17T09:41:43.642Z,2.45
2022-10-17T09:44:17.032Z,2.58
2022-10-17T09:46:51.867Z,2.38
2022-10-17T09:49:23.825Z,2.30
2022-10-17T09:51:55.474Z,2.50
2022-10-17T09:54:29.585Z,2.50
2022-10-17T09:56:59.531Z,2.53
2022-10-17T09:59:34.582Z,2.35
2022-10-17T10:02:10.503Z,2.50
2022-10-17T10:05:08.827Z,2.30
2022-10-17T10:07:39.651Z,2.20
2022-10-17T10:10:27.655Z,2.50
2022-10-17T10:13:08.225Z,2.42
2022-10-17T10:15:40.075Z,2.50
2022-10-17T10:21:10.406Z,2.33
2022-10-17T10:23:41.110Z,2.65
2022-10-17T10:26:36.233Z,2.22
2022-10-17T10:29:07.883Z,2.33
2022-10-17T10:31:40.360Z,2.65
2022-10-17T10:34:24.615Z,3.10
2022-10-17T10:36:58.104Z,2.72
2022-10-17T10:39:32.668Z,2.50
2022-10-17T10:42:02.768Z,2.45
2022-10-17T10:44:32.235Z,2.40
2022-10-17T10:47:16.934Z,2.20
2022-10-17T10:49:45.704Z,2.20
2022-10-17T10:52:30.055Z,2.17
2022-10-17T10:55:05.342Z,2.70
2022-10-17T10:57:35.930Z,2.30
2022-10-17T11:00:12.429Z,2.58
2022-10-17T11:02:53.104Z,2.65
2022-10-17T11:05:25.828Z,2.22
2022-10-17T11:07:59.696Z,2.50
2022-10-17T11:10:32.843Z,2.50
2022-10-17T11:13:06.225Z,2.45
2022-10-17T11:15:39.527Z,2.80
2022-10-17T11:18:10.588Z,2.50
2022-10-17T11:20:45.720Z,2.45
2022-10-17T11:23:21.465Z,2.30
2022-10-17T11:25:53.076Z,2.63
2022-10-17T11:28:25.175Z,2.45
2022-10-17T11:33:28.077Z,2.28
2022-10-17T11:35:59.600Z,2.40
2022-10-17T11:38:38.388Z,2.55
2022-10-17T11:41:08.388Z,2.50
2022-10-17T11:43:46.582Z,2.42
2022-10-17T11:46:26.236Z,1.98
2022-10-17T11:49:03.577Z,2.15
2022-10-17T11:54:34.842Z,2.53
2022-10-17T11:57:16.304Z,3.20
2022-10-17T12:00:01.440Z,2.42
2022-10-17T12:02:36.055Z,2.53
2022-10-17T12:05:10.888Z,2.47
2022-10-17T12:07:49.016Z,2.25
2022-10-17T12:10:31.189Z,2.28
2022-10-17T12:13:38.156Z,2.20
2022-10-17T12:16:44.987Z,2.83
2022-10-17T12:19:29.541Z,2.72
2022-10-17T12:22:00.587Z,2.38
2022-10-17T12:24:41.760Z,2.38
2022-10-17T12:27:38.841Z,2.15
2022-10-17T12:30:20.351Z,2.45
2022-10-17T12:33:06.721Z,2.40
2022-10-17T12:35:38.605Z,2.65
2022-10-17T12:38:21.551Z,3.13
2022-10-17T12:40:52.362Z,2.65
2022-10-17T12:46:56.441Z,2.60
2022-10-17T12:49:49.674Z,2.42
2022-10-17T12:52:25.997Z,2.92
2022-10-17T12:55:14.843Z,2.72
2022-10-17T12:57:49.871Z,3.13
2022-10-17T13:00:23.401Z,2.53
2022-10-17T13:02:54.482Z,2.38
2022-10-17T13:05:28.918Z,3.08
2022-10-17T13:08:01.544Z,2.60
2022-10-17T13:10:32.412Z,2.20
2022-10-17T13:13:08.663Z,2.78
2022-10-17T13:15:37.913Z,2.30
2022-10-17T13:18:06.104Z,2.90
2022-10-17T13:20:36.223Z,2.42
2022-10-17T13:23:05.647Z,2.05
2022-10-17T13:25:37.590Z,2.17
2022-10-17T13:28:13.254Z,2.60
2022-10-17T13:30:41.735Z,1.75
2022-10-17T13:33:31.475Z,2.15
2022-10-17T13:36:01.454Z,2.50
2022-10-17T13:38:34.921Z,2.45
2022-10-17T13:41:33.630Z,2.28
2022-10-17T13:43:54.381Z,2.35
2022-10-17T13:46:37.424Z,2.10
2022-10-17T13:49:13.084Z,2.20
2022-10-17T13:51:46.038Z,2.35
2022-10-17T13:54:34.946Z,2.90
2022-10-17T13:57:05.552Z,2.40
2022-10-17T13:59:39.175Z,2.53
2022-10-17T14:02:12.696Z,2.72
2022-10-17T14:05:11.514Z,2.50
2022-10-17T14:07:46.276Z,2.15
2022-10-17T14:10:24.377Z,2.28
2022-10-17T14:12:53.645Z,2.65
2022-10-17T14:15:26.251Z,2.45
2022-10-17T14:17:56.494Z,2.13
2022-10-17T14:23:32.755Z,2.00
2022-10-17T14:26:12.607Z,2.38
2022-10-17T14:28:45.721Z,2.10
2022-10-17T14:31:21.651Z,2.55
2022-10-17T14:33:51.399Z,2.58
2022-10-17T14:36:20.573Z,2.33
2022-10-17T14:38:51.446Z,2.22
2022-10-17T14:41:41.909Z,2.83
2022-10-17T14:44:19.578Z,2.33
2022-10-17T14:46:51.715Z,2.40
2022-10-17T14:52:29.494Z,2.28
2022-10-17T14:54:58.962Z,2.40
2022-10-17T14:57:40.697Z,2.33
2022-10-17T15:00:11.383Z,2.38
2022-10-17T15:02:40.112Z,2.10
2022-10-17T15:05:12.977Z,2.50
2022-10-17T15:07:42.544Z,2.35
2022-10-17T15:10:33.519Z,2.15
2022-10-17T15:13:27.117Z,2.30
2022-10-17T15:15:54.527Z,2.50
2022-10-17T15:18:22.714Z,2.47
2022-10-17T15:20:59.629Z,2.28
2022-10-17T15:23:34.657Z,2.30
2022-10-17T15:26:03.014Z,2.10
2022-10-17T15:28:32.562Z,2.35
2022-10-17T15:31:01.646Z,1.92
2022-10-17T15:33:29.887Z,2.38
2022-10-17T15:38:31.456Z,2.47
2022-10-17T15:40:59.943Z,2.13
2022-10-17T15:43:30.450Z,2.60
2022-10-17T15:46:01.214Z,2.13
2022-10-17T15:48:32.511Z,2.08
2022-10-17T15:51:01.255Z,2.40
2022-10-17T15:53:30.717Z,2.67
2022-10-17T15:55:59.577Z,2.80
2022-10-17T15:58:31.555Z,2.50
2022-10-17T16:01:01.027Z,2.58
2022-10-17T16:03:31.163Z,2.63
2022-10-17T16:06:00.938Z,2.70
2022-10-17T16:08:29.914Z,2.58
2022-10-17T16:10:58.192Z,3.00
2022-10-17T16:13:26.307Z,3.40
2022-10-17T16:15:54.302Z,3.60
2022-10-17T16:18:23.696Z,4.75
2022-10-17T16:20:51.824Z,4.47
2022-10-17T16:23:20.748Z,6.05
2022-10-17T16:25:51.773Z,8.25
2022-10-17T16:28:20.153Z,6.20
2022-10-17T16:30:49.318Z,8.93
2022-10-17T16:33:17.396Z,8.10
2022-10-17T16:35:49.401Z,7.68
2022-10-17T16:38:17.783Z,8.13
2022-10-17T16:40:47.284Z,16.83
2022-10-17T16:43:16.063Z,25.30
2022-10-17T16:45:44.596Z,60.75
2022-10-17T16:48:15.413Z,47.42
2022-10-17T16:50:43.565Z,80.50
2022-10-17T16:53:13.149Z,66.35
2022-10-17T16:55:42.896Z,47.22
2022-10-17T16:58:11.321Z,57.05
2022-10-17T17:00:40.073Z,33.00
2022-10-17T17:03:08.481Z,33.10
2022-10-17T17:05:37.130Z,23.45
2022-10-17T17:08:07.972Z,22.00
2022-10-17T17:10:47.615Z,12.07
2022-10-17T17:13:15.876Z,10.35
2022-10-17T17:18:14.283Z,3.35
2022-10-17T17:20:42.656Z,2.75
2022-10-17T17:23:13.824Z,3.20
2022-10-17T17:25:46.712Z,3.03
2022-10-17T17:28:15.102Z,3.72
2022-10-17T17:30:44.329Z,3.17
2022-10-17T17:33:12.616Z,3.67
2022-10-17T17:35:41.140Z,3.10
2022-10-17T17:38:10.065Z,3.63
2022-10-17T17:40:38.151Z,3.28
2022-10-17T17:46:03.132Z,3.78
2022-10-17T17:48:31.909Z,3.58
2022-10-17T17:51:04.193Z,3.35
2022-10-17T17:56:05.849Z,3.90
2022-10-17T17:58:36.346Z,3.60
2022-10-17T18:01:12.274Z,3.30
2022-10-17T18:03:42.465Z,3.30
2022-10-17T18:06:12.663Z,3.70
2022-10-17T18:08:41.238Z,3.72
2022-10-17T18:11:11.068Z,3.67
2022-10-17T18:13:42.224Z,3.85
2022-10-17T18:16:13.694Z,3.78
2022-10-17T18:18:42.925Z,4.05
2022-10-17T18:21:11.817Z,3.60
2022-10-17T18:23:40.786Z,3.28
2022-10-17T18:26:12.503Z,3.75
2022-10-17T18:28:43.646Z,4.88
2022-10-17T18:31:16.307Z,4.97
2022-10-17T18:33:47.597Z,4.15
2022-10-17T18:36:19.143Z,4.13
2022-10-17T18:38:48.497Z,4.30
2022-10-17T18:41:18.115Z,3.58
2022-10-17T18:43:56.634Z,4.35
2022-10-17T18:46:26.238Z,4.75
2022-10-17T18:48:54.561Z,4.30
2022-10-17T18:51:25.626Z,3.72
2022-10-17T18:53:56.284Z,4.15
2022-10-17T18:56:26.995Z,3.67
2022-10-17T18:58:57.383Z,3.58
2022-10-17T19:01:27.559Z,3.60
2022-10-17T19:03:58.118Z,4.20
2022-10-17T19:06:28.047Z,3.42
2022-10-17T19:08:59.134Z,3.80
2022-10-17T19:11:29.241Z,3.60
2022-10-17T19:14:00.331Z,3.50
2022-10-17T19:16:32.080Z,3.22
2022-10-17T19:19:02.245Z,3.55
2022-10-17T19:21:30.715Z,3.95
2022-10-17T19:24:02.747Z,3.88
2022-10-17T19:26:33.179Z,4.05
2022-10-17T19:29:03.315Z,4.03
2022-10-17T19:31:34.288Z,3.38
2022-10-17T19:34:02.878Z,3.65
2022-10-17T19:36:33.972Z,3.65
2022-10-17T19:39:03.029Z,3.63
2022-10-17T19:41:31.463Z,3.60
2022-10-17T19:44:01.945Z,4.18
2022-10-17T19:46:31.562Z,4.07
2022-10-17T19:48:59.748Z,4.30
2022-10-17T19:51:29.089Z,4.50
2022-10-17T19:54:00.451Z,4.30
2022-10-17T19:56:29.979Z,4.37
2022-10-17T19:58:59.598Z,4.65
2022-10-17T20:01:33.189Z,4.60
2022-10-17T20:04:01.734Z,3.95
2022-10-17T20:06:30.049Z,5.22
2022-10-17T20:08:58.335Z,4.80
2022-10-17T20:11:29.196Z,5.30
2022-10-17T20:13:57.955Z,4.72
2022-10-17T20:16:27.364Z,4.78
2022-10-17T20:18:58.035Z,5.15
2022-10-17T20:21:28.594Z,5.35
2022-10-17T20:23:56.836Z,5.43
2022-10-17T20:26:37.505Z,5.97
2022-10-17T20:29:11.013Z,5.32
2022-10-17T20:40:34.644Z,5.57
2022-10-17T20:43:03.745Z,5.97
2022-10-17T20:45:44.147Z,5.63
2022-10-17T20:48:20.280Z,6.53
2022-10-17T20:50:52.286Z,6.15
2022-10-17T20:53:37.679Z,6.10
2022-10-17T20:56:10.483Z,6.32
2022-10-17T20:58:38.792Z,6.63
2022-10-17T21:01:08.538Z,7.10
2022-10-17T21:03:39.812Z,6.22
2022-10-17T21:06:13.936Z,7.15
2022-10-17T21:08:43.711Z,7.10
2022-10-17T21:11:13.889Z,6.88
2022-10-17T21:13:50.104Z,7.07
2022-10-17T21:16:20.019Z,6.28
2022-10-17T21:18:49.334Z,7.35
2022-10-17T21:21:20.440Z,7.20
2022-10-17T21:23:50.246Z,6.82
2022-10-17T21:26:19.599Z,7.15
2022-10-17T21:28:49.192Z,7.22
2022-10-17T21:31:22.040Z,7.18
2022-10-17T21:33:53.518Z,6.68
2022-10-17T21:36:25.105Z,7.05
2022-10-17T21:38:54.731Z,7.47
2022-10-17T21:44:24.582Z,7.03
2022-10-17T21:46:53.331Z,8.23
2022-10-17T21:49:23.244Z,8.05
2022-10-17T21:51:53.821Z,8.15
2022-10-17T21:54:24.543Z,9.18
2022-10-17T21:56:53.107Z,7.55
2022-10-17T21:59:22.294Z,7.13
2022-10-17T22:01:50.995Z,7.93
2022-10-17T22:04:20.259Z,7.40
2022-10-17T22:06:51.251Z,7.40
2022-10-17T22:09:23.943Z,8.00
2022-10-17T22:11:55.064Z,6.97
2022-10-17T22:14:26.137Z,6.82
2022-10-17T22:16:54.790Z,7.10
2022-10-17T22:19:25.265Z,7.07
2022-10-17T22:21:55.128Z,6.50
2022-10-17T22:24:24.835Z,6.93
2022-10-17T22:26:53.063Z,6.38
2022-10-17T22:29:21.690Z,6.78
2022-10-17T22:31:52.142Z,7.38
2022-10-17T22:34:26.091Z,7.28
2022-10-17T22:36:54.218Z,55.42
2022-10-17T22:39:23.839Z,44.00
2022-10-17T22:41:52.191Z,31.88
2022-10-17T22:44:20.631Z,49.83
2022-10-17T22:46:51.922Z,28.20
2022-10-17T22:49:20.326Z,15.88
2022-10-17T22:51:48.880Z,13.93
2022-10-17T22:54:17.172Z,13.50
2022-10-17T22:56:46.933Z,13.68
2022-10-17T22:59:15.650Z,11.13
2022-10-17T23:01:45.531Z,10.85
2022-10-17T23:04:15.952Z,9.65
2022-10-17T23:06:44.337Z,8.35
2022-10-17T23:09:13.931Z,8.48
2022-10-17T23:11:42.410Z,8.63
2022-10-17T23:14:12.044Z,8.73
2022-10-17T23:16:40.091Z,8.10
2022-10-17T23:19:08.341Z,8.05
2022-10-17T23:21:36.414Z,8.05
2022-10-17T23:24:09.189Z,7.20
2022-10-17T23:26:37.263Z,7.80
2022-10-17T23:29:05.832Z,7.35
2022-10-17T23:31:35.598Z,6.72
2022-10-17T23:34:03.860Z,6.50
2022-10-17T23:39:05.856Z,6.55
2022-10-17T23:41:34.876Z,7.22
2022-10-17T23:44:03.596Z,6.93
2022-10-17T23:46:31.872Z,7.10
2022-10-17T23:49:01.522Z,6.97
2022-10-17T23:51:30.644Z,7.05
2022-10-17T23:53:59.005Z,6.32
2022-10-17T23:56:27.849Z,7.45
2022-10-17T23:58:55.899Z,6.80
